createdAt,value
2022-08-20T00:02:14.993Z,38.60
2022-08-20T00:04:43.004Z,38.82
2022-08-20T00:07:10.842Z,38.75
2022-08-20T00:09:38.843Z,39.08
2022-08-20T00:12:07.427Z,38.97
2022-08-20T00:14:35.761Z,39.16
2022-08-20T00:17:08.100Z,39.42
2022-08-20T00:19:36.707Z,39.44
2022-08-20T00:22:06.893Z,39.50
2022-08-20T00:24:35.035Z,39.46
2022-08-20T00:27:03.060Z,39.68
2022-08-20T00:29:31.760Z,39.77
2022-08-20T00:31:59.990Z,39.94
2022-08-20T00:34:30.876Z,40.08
2022-08-20T00:36:58.814Z,40.03
2022-08-20T00:39:27.313Z,39.95
2022-08-20T00:41:55.312Z,40.05
2022-08-20T00:44:24.374Z,40.25
2022-08-20T00:46:52.993Z,40.16
2022-08-20T00:49:28.191Z,40.31
2022-08-20T00:52:09.319Z,40.36
2022-08-20T00:54:44.545Z,40.55
2022-08-20T00:57:23.553Z,40.52
2022-08-20T00:59:52.268Z,40.67
2022-08-20T01:02:22.429Z,40.49
2022-08-20T01:04:54.819Z,40.67
2022-08-20T01:07:36.025Z,40.75
2022-08-20T01:10:13.246Z,40.71
2022-08-20T01:12:44.565Z,40.79
2022-08-20T01:15:16.251Z,40.93
2022-08-20T01:17:47.987Z,40.94
2022-08-20T01:20:25.947Z,41.06
2022-08-20T01:23:25.456Z,41.21
2022-08-20T01:26:13.306Z,41.24
2022-08-20T01:28:44.925Z,41.18
2022-08-20T01:31:19.999Z,41.21
2022-08-20T01:33:49.444Z,41.32
2022-08-20T01:36:20.158Z,41.43
2022-08-20T01:38:54.159Z,41.49
2022-08-20T01:41:28.204Z,41.52
2022-08-20T01:43:58.388Z,41.55
2022-08-20T01:46:30.085Z,41.58
2022-08-20T01:49:06.727Z,41.55
2022-08-20T01:51:42.440Z,41.78
2022-08-20T01:54:10.360Z,41.62
2022-08-20T01:57:29.445Z,41.70
2022-08-20T01:59:57.417Z,41.83
2022-08-20T02:02:26.570Z,41.83
2022-08-20T02:04:54.426Z,41.95
2022-08-20T02:07:23.828Z,42.07
2022-08-20T02:09:51.676Z,42.09
2022-08-20T02:12:19.710Z,42.12
2022-08-20T02:14:50.352Z,42.06
2022-08-20T02:17:23.031Z,42.09
2022-08-20T02:19:54.108Z,42.10
2022-08-20T02:22:50.042Z,42.09
2022-08-20T02:25:21.075Z,41.95
2022-08-20T02:27:52.490Z,41.77
2022-08-20T02:30:34.066Z,41.92
2022-08-20T02:33:03.411Z,41.92
2022-08-20T02:35:31.508Z,41.77
2022-08-20T02:38:03.614Z,41.86
2022-08-20T02:40:33.500Z,41.92
2022-08-20T02:43:02.194Z,41.92
2022-08-20T02:45:32.025Z,41.96
2022-08-20T02:47:59.911Z,41.90
2022-08-20T02:50:28.271Z,41.92
2022-08-20T02:52:57.469Z,41.82
2022-08-20T02:55:28.918Z,41.63
2022-08-20T02:57:58.810Z,41.49
2022-08-20T03:00:37.997Z,41.35
2022-08-20T03:03:11.541Z,41.14
2022-08-20T03:05:42.584Z,41.01
2022-08-20T03:08:13.297Z,40.85
2022-08-20T03:10:42.940Z,40.88
2022-08-20T03:13:14.232Z,40.45
2022-08-20T03:15:47.038Z,40.33
2022-08-20T03:18:14.996Z,40.06
2022-08-20T03:20:43.337Z,39.83
2022-08-20T03:23:14.500Z,39.65
2022-08-20T03:25:44.654Z,40.18
2022-08-20T03:28:16.824Z,39.25
2022-08-20T03:30:46.912Z,39.42
2022-08-20T03:33:16.293Z,39.26
2022-08-20T03:35:44.607Z,39.14
2022-08-20T03:38:13.680Z,38.69
2022-08-20T03:40:52.276Z,38.41
2022-08-20T03:43:20.254Z,38.02
2022-08-20T03:45:48.732Z,37.89
2022-08-20T03:48:18.777Z,37.65
2022-08-20T03:50:49.096Z,37.42
2022-08-20T03:53:18.524Z,37.35
2022-08-20T03:55:53.782Z,37.04
2022-08-20T03:58:34.739Z,36.61
2022-08-20T04:01:06.184Z,36.11
2022-08-20T04:03:34.765Z,35.82
2022-08-20T04:06:02.759Z,35.44
2022-08-20T04:08:31.076Z,35.43
2022-08-20T04:11:02.106Z,35.65
2022-08-20T04:13:37.119Z,35.96
2022-08-20T04:16:13.423Z,36.16
2022-08-20T04:18:58.632Z,36.45
2022-08-20T04:21:33.389Z,36.51
2022-08-20T04:24:03.959Z,36.73
2022-08-20T04:26:35.098Z,37.16
2022-08-20T04:29:05.586Z,37.41
2022-08-20T04:31:33.868Z,37.46
2022-08-20T04:34:10.801Z,37.19
2022-08-20T04:36:38.976Z,36.86
2022-08-20T04:39:07.127Z,36.54
2022-08-20T04:41:34.994Z,36.32
2022-08-20T04:44:03.030Z,36.10
2022-08-20T04:46:32.762Z,35.73
2022-08-20T04:49:01.653Z,35.73
2022-08-20T04:51:29.624Z,35.03
2022-08-20T04:53:59.875Z,34.85
2022-08-20T04:56:33.285Z,34.61
2022-08-20T04:59:01.944Z,34.39
2022-08-20T05:01:29.979Z,34.10
2022-08-20T05:04:00.257Z,34.19
2022-08-20T05:06:31.578Z,34.05
2022-08-20T05:09:02.940Z,34.34
2022-08-20T05:11:33.578Z,34.48
2022-08-20T05:14:08.962Z,34.58
2022-08-20T05:16:38.436Z,34.57
2022-08-20T05:19:09.042Z,34.65
2022-08-20T05:21:37.816Z,34.81
2022-08-20T05:24:06.741Z,34.82
2022-08-20T05:26:35.709Z,34.96
2022-08-20T05:29:05.443Z,35.12
2022-08-20T05:31:35.034Z,35.31
2022-08-20T05:34:11.588Z,35.44
2022-08-20T05:36:49.081Z,35.42
2022-08-20T05:39:23.479Z,35.33
2022-08-20T05:41:51.556Z,35.54
2022-08-20T05:44:19.945Z,35.82
2022-08-20T05:46:48.807Z,35.78
2022-08-20T05:49:20.286Z,35.91
2022-08-20T05:51:49.968Z,36.01
2022-08-20T05:54:17.763Z,36.10
2022-08-20T05:56:45.744Z,36.13
2022-08-20T05:59:39.698Z,36.27
2022-08-20T06:02:30.449Z,36.39
2022-08-20T06:04:58.631Z,36.45
2022-08-20T06:07:27.132Z,36.41
2022-08-20T06:09:54.968Z,36.16
2022-08-20T06:12:23.326Z,36.15
2022-08-20T06:14:51.758Z,36.27
2022-08-20T06:17:22.221Z,36.19
2022-08-20T06:19:50.297Z,36.15
2022-08-20T06:22:21.767Z,36.06
2022-08-20T06:24:53.289Z,35.93
2022-08-20T06:27:21.923Z,35.96
2022-08-20T06:29:50.362Z,35.86
2022-08-20T06:32:21.234Z,35.92
2022-08-20T06:35:03.590Z,35.91
2022-08-20T06:37:36.562Z,35.88
2022-08-20T06:40:06.861Z,35.86
2022-08-20T06:42:35.231Z,35.82
2022-08-20T06:45:07.246Z,35.76
2022-08-20T06:47:40.391Z,35.84
2022-08-20T06:50:14.117Z,35.78
2022-08-20T06:53:03.349Z,35.76
2022-08-20T06:55:30.979Z,35.71
2022-08-20T06:58:08.065Z,35.71
2022-08-20T07:00:55.923Z,35.52
2022-08-20T07:03:23.739Z,35.51
2022-08-20T07:05:52.270Z,35.60
2022-08-20T07:08:22.338Z,35.65
2022-08-20T07:10:52.583Z,35.65
2022-08-20T07:13:20.937Z,35.56
2022-08-20T07:15:53.075Z,35.56
2022-08-20T07:18:28.626Z,35.35
2022-08-20T07:20:57.784Z,35.34
2022-08-20T07:23:26.696Z,35.24
2022-08-20T07:25:55.952Z,35.23
2022-08-20T07:28:26.343Z,35.11
2022-08-20T07:31:15.945Z,34.96
2022-08-20T07:33:44.801Z,34.76
2022-08-20T07:36:13.194Z,34.80
2022-08-20T07:38:45.907Z,34.73
2022-08-20T07:41:15.073Z,34.85
2022-08-20T07:43:47.394Z,34.86
2022-08-20T07:46:17.811Z,34.80
2022-08-20T07:48:50.592Z,34.69
2022-08-20T07:51:22.527Z,34.78
2022-08-20T07:53:51.910Z,34.64
2022-08-20T07:56:22.676Z,34.71
2022-08-20T07:58:55.487Z,34.59
2022-08-20T08:01:28.758Z,34.74
2022-08-20T08:03:57.910Z,34.56
2022-08-20T08:06:31.042Z,34.71
2022-08-20T08:09:04.791Z,34.85
2022-08-20T08:11:38.529Z,34.96
2022-08-20T08:14:10.603Z,35.05
2022-08-20T08:16:44.176Z,35.04
2022-08-20T08:19:14.843Z,35.03
2022-08-20T08:21:44.473Z,35.02
2022-08-20T08:24:16.667Z,35.01
2022-08-20T08:26:50.204Z,35.19
2022-08-20T08:29:18.293Z,34.98
2022-08-20T08:31:46.359Z,35.09
2022-08-20T08:34:14.455Z,35.04
2022-08-20T08:36:44.332Z,35.06
2022-08-20T08:39:14.625Z,35.05
2022-08-20T08:41:49.620Z,35.05
2022-08-20T08:44:28.500Z,34.97
2022-08-20T08:47:03.712Z,35.02
2022-08-20T08:49:38.023Z,35.12
2022-08-20T08:52:14.797Z,35.10
2022-08-20T08:54:47.040Z,35.02
2022-08-20T08:57:16.851Z,35.14
2022-08-20T09:00:03.503Z,35.17
2022-08-20T09:02:38.841Z,35.16
2022-08-20T09:05:17.886Z,35.33
2022-08-20T09:07:50.106Z,35.31
2022-08-20T09:10:23.182Z,35.27
2022-08-20T09:12:52.583Z,35.42
2022-08-20T09:15:21.635Z,35.39
2022-08-20T09:17:49.828Z,35.74
2022-08-20T09:20:18.549Z,35.96
2022-08-20T09:22:46.507Z,36.07
2022-08-20T09:25:15.791Z,35.93
2022-08-20T09:27:43.894Z,36.08
2022-08-20T09:30:14.940Z,36.42
2022-08-20T09:32:43.840Z,36.29
2022-08-20T09:35:13.708Z,36.63
2022-08-20T09:38:06.959Z,36.86
2022-08-20T09:40:36.848Z,37.01
2022-08-20T09:43:08.894Z,37.10
2022-08-20T09:45:37.780Z,37.28
2022-08-20T09:48:05.958Z,37.31
2022-08-20T09:50:43.720Z,37.46
2022-08-20T09:53:11.964Z,37.42
2022-08-20T09:55:42.210Z,37.37
2022-08-20T09:58:21.581Z,37.54
2022-08-20T10:00:54.823Z,37.72
2022-08-20T10:03:25.968Z,37.70
2022-08-20T10:05:53.928Z,37.87
2022-08-20T10:08:23.369Z,38.01
2022-08-20T10:10:51.208Z,38.02
2022-08-20T10:13:19.043Z,38.12
2022-08-20T10:15:46.973Z,38.24
2022-08-20T10:18:14.816Z,38.37
2022-08-20T10:20:43.935Z,38.85
2022-08-20T10:23:12.026Z,38.71
2022-08-20T10:25:40.861Z,38.92
2022-08-20T10:28:09.015Z,39.09
2022-08-20T10:30:36.865Z,39.10
2022-08-20T10:33:05.027Z,39.09
2022-08-20T10:35:33.452Z,39.01
2022-08-20T10:38:01.296Z,38.98
2022-08-20T10:40:32.290Z,39.13
2022-08-20T10:43:00.200Z,38.98
2022-08-20T10:45:36.972Z,39.13
2022-08-20T10:48:08.408Z,39.31
2022-08-20T10:50:40.615Z,39.18
2022-08-20T10:53:11.454Z,39.23
2022-08-20T10:55:47.176Z,39.17
2022-08-20T10:58:15.333Z,39.12
2022-08-20T11:00:45.895Z,39.06
2022-08-20T11:03:13.972Z,39.12
2022-08-20T11:05:51.083Z,39.17
2022-08-20T11:08:33.228Z,39.09
2022-08-20T11:11:02.544Z,39.02
2022-08-20T11:13:30.529Z,39.00
2022-08-20T11:16:02.067Z,38.73
2022-08-20T11:18:43.767Z,38.62
2022-08-20T11:21:18.287Z,38.32
2022-08-20T11:24:02.625Z,38.44
2022-08-20T11:26:35.334Z,38.15
2022-08-20T11:29:03.497Z,38.38
2022-08-20T11:34:42.523Z,37.88
2022-08-20T11:37:13.181Z,37.71
2022-08-20T11:39:43.899Z,37.47
2022-08-20T11:42:11.937Z,37.54
2022-08-20T11:44:39.849Z,37.58
2022-08-20T11:47:11.091Z,37.58
2022-08-20T11:49:41.804Z,37.41
2022-08-20T11:52:09.730Z,37.29
2022-08-20T11:54:40.650Z,37.21
2022-08-20T11:57:08.627Z,37.12
2022-08-20T11:59:36.479Z,36.96
2022-08-20T12:02:06.933Z,36.74
2022-08-20T12:04:49.701Z,36.70
2022-08-20T12:07:27.432Z,36.66
2022-08-20T12:09:55.787Z,36.64
2022-08-20T12:12:24.257Z,36.64
2022-08-20T12:14:59.689Z,36.31
2022-08-20T12:20:33.263Z,35.80
2022-08-20T12:23:01.251Z,35.91
2022-08-20T12:25:32.921Z,35.65
2022-08-20T12:28:00.975Z,35.49
2022-08-20T12:33:54.063Z,35.28
2022-08-20T12:36:37.418Z,35.17
2022-08-20T12:39:09.517Z,35.00
2022-08-20T12:41:37.687Z,34.87
2022-08-20T12:44:20.065Z,34.85
2022-08-20T12:46:54.521Z,34.59
2022-08-20T12:49:28.293Z,34.44
2022-08-20T12:52:31.430Z,34.52
2022-08-20T12:55:00.615Z,34.49
2022-08-20T12:57:43.288Z,34.42
2022-08-20T13:00:31.754Z,34.52
2022-08-20T13:03:01.778Z,34.59
2022-08-20T13:05:31.875Z,34.50
2022-08-20T13:08:00.504Z,34.46
2022-08-20T13:10:34.192Z,34.59
2022-08-20T13:13:03.221Z,34.60
2022-08-20T13:15:35.077Z,34.44
2022-08-20T13:18:09.028Z,34.57
2022-08-20T13:20:38.496Z,34.62
2022-08-20T13:23:08.086Z,34.51
2022-08-20T13:25:40.420Z,34.74
2022-08-20T13:28:17.986Z,34.88
2022-08-20T13:30:47.956Z,34.51
2022-08-20T13:33:18.884Z,34.58
2022-08-20T13:35:46.844Z,34.63
2022-08-20T13:38:15.068Z,34.76
2022-08-20T13:40:44.453Z,34.83
2022-08-20T13:43:19.029Z,34.85
2022-08-20T13:45:51.885Z,34.80
2022-08-20T13:51:19.045Z,34.84
2022-08-20T13:53:47.209Z,34.88
2022-08-20T13:56:17.235Z,34.82
2022-08-20T13:58:45.160Z,34.81
2022-08-20T14:01:14.130Z,34.84
2022-08-20T14:03:42.777Z,35.05
2022-08-20T14:06:10.777Z,35.02
2022-08-20T14:08:41.596Z,35.01
2022-08-20T14:11:12.815Z,35.12
2022-08-20T14:13:42.391Z,35.08
2022-08-20T14:16:21.460Z,35.17
2022-08-20T14:18:56.450Z,35.24
2022-08-20T14:21:27.663Z,35.23
2022-08-20T14:23:56.156Z,35.27
2022-08-20T14:26:25.290Z,35.48
2022-08-20T14:28:54.249Z,35.34
2022-08-20T14:31:22.041Z,35.51
2022-08-20T14:33:51.795Z,35.54
2022-08-20T14:36:21.756Z,35.53
2022-08-20T14:38:49.894Z,35.54
2022-08-20T14:41:17.796Z,35.53
2022-08-20T14:43:45.759Z,35.45
2022-08-20T14:46:16.954Z,35.45
2022-08-20T14:48:45.048Z,35.41
2022-08-20T14:51:21.791Z,35.44
2022-08-20T14:53:50.802Z,35.51
2022-08-20T14:56:19.102Z,35.58
2022-08-20T14:58:47.021Z,35.53
2022-08-20T15:01:15.059Z,35.54
2022-08-20T15:03:43.141Z,35.48
2022-08-20T15:06:21.212Z,35.45
2022-08-20T15:08:50.327Z,35.36
2022-08-20T15:11:19.219Z,35.43
2022-08-20T15:13:47.432Z,35.39
2022-08-20T15:16:16.302Z,35.33
2022-08-20T15:18:45.098Z,35.37
2022-08-20T15:21:13.032Z,35.45
2022-08-20T15:23:41.313Z,35.62
2022-08-20T15:26:09.237Z,35.49
2022-08-20T15:28:37.197Z,35.65
2022-08-20T15:31:10.797Z,35.50
2022-08-20T15:34:03.842Z,35.59
2022-08-20T15:36:32.754Z,35.60
2022-08-20T15:39:00.649Z,35.70
2022-08-20T15:41:30.594Z,35.65
2022-08-20T15:44:02.746Z,35.70
2022-08-20T15:46:32.155Z,35.67
2022-08-20T15:49:04.127Z,35.55
2022-08-20T15:51:40.858Z,35.50
2022-08-20T15:54:19.030Z,35.58
2022-08-20T15:57:02.030Z,35.47
2022-08-20T15:59:38.677Z,35.46
2022-08-20T16:02:38.887Z,35.62
2022-08-20T16:05:23.945Z,35.74
2022-08-20T16:08:21.430Z,35.65
2022-08-20T16:10:58.742Z,35.64
2022-08-20T16:13:47.136Z,35.65
2022-08-20T16:16:18.613Z,35.71
2022-08-20T16:18:49.996Z,35.82
2022-08-20T16:21:27.743Z,35.66
2022-08-20T16:23:57.714Z,35.83
2022-08-20T16:26:32.203Z,35.82
2022-08-20T16:29:12.305Z,35.85
2022-08-20T16:32:05.272Z,35.73
2022-08-20T16:34:35.657Z,35.89
2022-08-20T16:37:06.397Z,35.96
2022-08-20T16:40:02.162Z,35.85
2022-08-20T16:42:38.437Z,36.04
2022-08-20T16:45:12.623Z,36.19
2022-08-20T16:47:41.503Z,36.08
2022-08-20T16:50:15.345Z,36.15
2022-08-20T16:52:46.612Z,35.98
2022-08-20T16:55:15.045Z,36.09
2022-08-20T16:57:43.213Z,36.25
2022-08-20T17:00:44.939Z,36.20
2022-08-20T17:03:39.837Z,36.36
2022-08-20T17:06:37.105Z,36.40
2022-08-20T17:09:21.151Z,36.22
2022-08-20T17:12:11.268Z,36.29
2022-08-20T17:14:55.814Z,36.45
2022-08-20T17:17:29.998Z,36.33
2022-08-20T17:20:00.450Z,36.36
2022-08-20T17:22:30.095Z,36.34
2022-08-20T17:24:58.479Z,36.37
2022-08-20T17:27:38.200Z,36.27
2022-08-20T17:30:19.711Z,36.41
2022-08-20T17:33:00.208Z,36.47
2022-08-20T17:35:36.380Z,36.67
2022-08-20T17:38:04.964Z,36.54
2022-08-20T17:40:46.049Z,36.54
2022-08-20T17:43:29.508Z,36.53
2022-08-20T17:45:59.106Z,36.33
2022-08-20T17:48:33.644Z,36.35
2022-08-20T17:51:08.855Z,36.45
2022-08-20T17:53:38.461Z,36.42
2022-08-20T17:56:21.944Z,36.47
2022-08-20T17:59:50.773Z,36.39
2022-08-20T18:02:06.476Z,36.19
2022-08-20T18:04:34.779Z,36.26
2022-08-20T18:07:26.026Z,36.15
2022-08-20T18:10:16.844Z,36.39
2022-08-20T18:12:50.842Z,36.26
2022-08-20T18:15:27.968Z,36.19
2022-08-20T18:18:30.053Z,36.14
2022-08-20T18:21:39.640Z,36.30
2022-08-20T18:24:09.126Z,36.24
2022-08-20T18:26:54.200Z,36.19
2022-08-20T18:29:36.336Z,36.02
2022-08-20T18:32:31.698Z,36.27
2022-08-20T18:35:18.096Z,36.24
2022-08-20T18:37:46.012Z,36.08
2022-08-20T18:40:37.803Z,36.19
2022-08-20T18:43:17.395Z,36.09
2022-08-20T18:45:45.296Z,36.24
2022-08-20T18:48:24.895Z,36.15
2022-08-20T18:50:56.128Z,36.21
2022-08-20T18:53:33.962Z,36.19
2022-08-20T18:56:11.754Z,36.23
2022-08-20T18:59:01.970Z,36.30
2022-08-20T19:01:32.445Z,36.24
2022-08-20T19:04:00.479Z,36.25
2022-08-20T19:06:48.901Z,36.39
2022-08-20T19:09:25.975Z,36.26
2022-08-20T19:12:15.927Z,36.29
2022-08-20T19:15:07.734Z,36.50
2022-08-20T19:17:57.068Z,36.54
2022-08-20T19:20:28.420Z,36.64
2022-08-20T19:23:01.785Z,36.50
2022-08-20T19:25:38.388Z,36.53
2022-08-20T19:28:40.107Z,36.76
2022-08-20T19:31:20.825Z,36.84
2022-08-20T19:33:51.728Z,36.79
2022-08-20T19:36:28.119Z,36.96
2022-08-20T19:38:58.977Z,36.73
2022-08-20T19:41:35.670Z,36.89
2022-08-20T19:44:03.638Z,37.02
2022-08-20T19:46:36.404Z,37.02
2022-08-20T19:49:16.118Z,36.96
2022-08-20T19:52:22.489Z,37.10
2022-08-20T19:54:53.581Z,37.21
2022-08-20T19:57:23.228Z,37.07
2022-08-20T20:00:07.516Z,37.23
2022-08-20T20:02:35.724Z,37.07
2022-08-20T20:05:08.919Z,37.24
2022-08-20T20:07:36.809Z,37.15
2022-08-20T20:10:06.926Z,37.33
2022-08-20T20:12:34.867Z,37.42
2022-08-20T20:15:03.487Z,37.51
2022-08-20T20:17:35.658Z,37.47
2022-08-20T20:20:23.935Z,37.44
2022-08-20T20:22:56.230Z,37.53
2022-08-20T20:25:38.970Z,37.34
2022-08-20T20:28:31.378Z,37.55
2022-08-20T20:31:14.044Z,37.53
2022-08-20T20:33:44.334Z,37.54
2022-08-20T20:36:17.500Z,37.65
2022-08-20T20:39:00.223Z,37.67
2022-08-20T20:41:29.505Z,37.69
2022-08-20T20:44:03.985Z,37.70
2022-08-20T20:46:34.216Z,37.64
2022-08-20T20:49:20.459Z,37.72
2022-08-20T20:52:01.812Z,37.74
2022-08-20T20:54:36.048Z,37.72
2022-08-20T20:57:37.736Z,37.70
2022-08-20T21:00:12.741Z,37.81
2022-08-20T21:02:41.109Z,37.82
2022-08-20T21:05:10.569Z,37.64
2022-08-20T21:07:45.739Z,37.66
2022-08-20T21:10:20.486Z,37.77
2022-08-20T21:12:53.069Z,37.61
2022-08-20T21:15:23.324Z,37.64
2022-08-20T21:17:51.519Z,37.84
2022-08-20T21:20:21.207Z,37.61
2022-08-20T21:22:49.019Z,37.75
2022-08-20T21:25:18.906Z,37.83
2022-08-20T21:27:50.259Z,37.85
2022-08-20T21:30:34.131Z,37.91
2022-08-20T21:33:02.868Z,37.91
2022-08-20T21:35:34.844Z,37.99
2022-08-20T21:38:02.912Z,37.83
2022-08-20T21:40:33.085Z,37.72
2022-08-20T21:43:06.231Z,37.97
2022-08-20T21:45:34.793Z,38.05
2022-08-20T21:48:03.349Z,37.99
2022-08-20T21:50:31.541Z,37.98
2022-08-20T21:53:00.217Z,37.84
2022-08-20T21:55:37.395Z,37.89
2022-08-20T21:58:08.416Z,37.75
2022-08-20T22:00:48.452Z,37.83
2022-08-20T22:03:17.180Z,37.84
2022-08-20T22:05:51.809Z,38.01
2022-08-20T22:08:32.610Z,37.91
2022-08-20T22:11:04.980Z,37.87
2022-08-20T22:13:40.770Z,37.73
2022-08-20T22:16:21.039Z,37.89
2022-08-20T22:18:50.196Z,37.90
2022-08-20T22:21:22.161Z,37.84
2022-08-20T22:23:50.447Z,38.01
2022-08-20T22:26:19.186Z,37.75
2022-08-20T22:28:51.272Z,37.95
2022-08-20T22:31:23.287Z,37.78
2022-08-20T22:33:51.186Z,37.86
2022-08-20T22:36:19.300Z,37.74
2022-08-20T22:38:54.637Z,37.82
2022-08-20T22:41:24.142Z,37.94
2022-08-20T22:43:56.731Z,37.89
2022-08-20T22:46:27.308Z,37.60
2022-08-20T22:48:56.313Z,37.70
2022-08-20T22:51:28.178Z,37.85
2022-08-20T22:53:56.155Z,37.62
2022-08-20T22:56:24.095Z,37.96
2022-08-20T22:58:52.016Z,37.75
2022-08-20T23:01:20.629Z,37.64
2022-08-20T23:03:49.664Z,37.82
2022-08-20T23:06:17.794Z,37.67
2022-08-20T23:08:45.834Z,37.72
2022-08-20T23:11:13.938Z,37.87
2022-08-20T23:13:42.936Z,37.89
2022-08-20T23:16:10.955Z,37.85
2022-08-20T23:18:40.261Z,37.91
2022-08-20T23:21:08.074Z,37.85
2022-08-20T23:23:36.090Z,37.93
2022-08-20T23:26:03.944Z,38.10
2022-08-20T23:28:34.027Z,38.09
2022-08-20T23:31:04.369Z,38.07
2022-08-20T23:33:32.811Z,38.22
2022-08-20T23:36:04.401Z,38.01
2022-08-20T23:38:32.231Z,38.07
2022-08-20T23:41:00.092Z,37.96
2022-08-20T23:43:28.013Z,37.94
2022-08-20T23:45:58.936Z,38.15
2022-08-20T23:48:26.834Z,38.12
2022-08-20T23:50:55.065Z,38.18
2022-08-20T23:53:23.132Z,38.21
2022-08-20T23:55:50.924Z,38.08
2022-08-20T23:58:20.672Z,38.22
